Portada
METAR-TAF:

METAR-TAF

Aeropuertos :

Aeropuerto de Reggio di Calabria

Regio de Calabria, Italia

latitud: 38-04N, longitud: 015-39E, altitud: 11 m

Observación

El informe se hizo hace 38 minutos, a las 17:50 UTC
Viento 11 kt del norte
Temperatura 21°C
Humedad 73%
Presión 1011 hPa
Visibilidad 10 km o más
Nubes dispersas a una altura de 3000 ft

METAR: LICR 061750Z 36011KT 9999 SCT030 21/16 Q1011 RMK VIS MIN 9999

Hora: 20:28 (18:28 UTC)

Pronóstico

El informe se hizo hace 1 hora y 28 minutos, a las 17:00 UTC
Pronóstico válido del 06 a las 18 UTC al 07 a las 18 UTC
Viento 15 kt del norte
Visibilidad 10 km o más
Nubes dispersas a una altura de 3000 ft
Evolucionando progresivamente
del 06 a las 22 UTC al 06 a las 24 UTC
Viento 5 kt con dirección variable

TAF: LICR 061700Z 0618/0718 35015KT 9999 SCT030 BECMG 0622/0624 VRB05KT

Observaciones y pronósticos meteorológicos de más de 4000 aeropuertos (mensajes METAR y TAF).

Los puntos amarillos y rojos representan las estaciones disponibles.

Ponga el ratón en el punto deseado para ver el nombre de la estación.

Haga clic para ver las observaciones y los pronósticos meteorológicos.

Para cambiar el mapa : haga clic en los botones verdes con una cruz de color negro para hacer un zoom, en el botón verde con un guión para alejar o en las flechas verdes para mapas adyacentes.


METAR-TAF: